sensor_id;sensor_type;location;lat;lon;timestamp;pressure;altitude;pressure_sealevel;temperature;humidity
68329;BME280;55182;56.864;60.554;2022-10-31T00:01:51;75001.59;;;-143.60;77.53
68329;BME280;55182;56.864;60.554;2022-10-31T00:04:16;75003.63;;;-143.60;77.60
68329;BME280;55182;56.864;60.554;2022-10-31T00:06:42;74997.59;;;-143.60;77.62
68329;BME280;55182;56.864;60.554;2022-10-31T00:09:08;75001.59;;;-143.60;77.75
68329;BME280;55182;56.864;60.554;2022-10-31T00:11:34;74989.56;;;-143.60;78.04
68329;BME280;55182;56.864;60.554;2022-10-31T00:14:00;74985.53;;;-143.60;78.13
68329;BME280;55182;56.864;60.554;2022-10-31T00:16:25;74985.53;;;-143.60;78.54
68329;BME280;55182;56.864;60.554;2022-10-31T00:18:51;74983.53;;;-143.60;78.59
68329;BME280;55182;56.864;60.554;2022-10-31T00:21:18;74975.50;;;-143.60;79.04
68329;BME280;55182;56.864;60.554;2022-10-31T00:23:44;74979.50;;;-143.60;79.40
68329;BME280;55182;56.864;60.554;2022-10-31T00:26:10;74977.50;;;-143.60;79.50
68329;BME280;55182;56.864;60.554;2022-10-31T00:28:35;74977.50;;;-143.60;80.05
68329;BME280;55182;56.864;60.554;2022-10-31T00:31:01;74977.50;;;-143.60;80.29
68329;BME280;55182;56.864;60.554;2022-10-31T00:33:27;74981.50;;;-143.60;80.29
68329;BME280;55182;56.864;60.554;2022-10-31T00:35:53;74975.50;;;-143.60;80.74
68329;BME280;55182;56.864;60.554;2022-10-31T00:38:18;74979.50;;;-143.60;80.69
68329;BME280;55182;56.864;60.554;2022-10-31T00:40:43;74981.50;;;-143.60;80.84
68329;BME280;55182;56.864;60.554;2022-10-31T00:43:09;74977.50;;;-143.60;81.21
68329;BME280;55182;56.864;60.554;2022-10-31T00:45:34;74979.50;;;-143.60;81.24
68329;BME280;55182;56.864;60.554;2022-10-31T00:48:00;74971.47;;;-143.60;81.47
68329;BME280;55182;56.864;60.554;2022-10-31T00:50:26;74973.47;;;-143.60;81.60
68329;BME280;55182;56.864;60.554;2022-10-31T00:52:51;74965.44;;;-143.60;81.81
68329;BME280;55182;56.864;60.554;2022-10-31T00:55:16;74973.47;;;-143.60;81.92
68329;BME280;55182;56.864;60.554;2022-10-31T00:57:42;74973.47;;;-143.60;82.14
68329;BME280;55182;56.864;60.554;2022-10-31T01:00:08;74961.44;;;-143.60;82.38
68329;BME280;55182;56.864;60.554;2022-10-31T01:02:33;74965.44;;;-143.60;82.06
68329;BME280;55182;56.864;60.554;2022-10-31T01:04:59;74963.44;;;-143.60;82.32
68329;BME280;55182;56.864;60.554;2022-10-31T01:07:25;74953.41;;;-143.60;82.26
68329;BME280;55182;56.864;60.554;2022-10-31T01:09:50;74951.38;;;-143.60;82.44
68329;BME280;55182;56.864;60.554;2022-10-31T01:12:16;74949.38;;;-143.60;82.35
68329;BME280;55182;56.864;60.554;2022-10-31T01:14:44;74949.38;;;-143.60;82.41
68329;BME280;55182;56.864;60.554;2022-10-31T01:17:10;74943.34;;;-143.60;82.33
68329;BME280;55182;56.864;60.554;2022-10-31T01:19:36;74941.34;;;-143.60;82.37
68329;BME280;55182;56.864;60.554;2022-10-31T01:24:45;74933.31;;;-143.60;82.76
68329;BME280;55182;56.864;60.554;2022-10-31T01:27:11;74941.34;;;-143.60;82.78
68329;BME280;55182;56.864;60.554;2022-10-31T01:29:36;74935.31;;;-143.60;82.73
68329;BME280;55182;56.864;60.554;2022-10-31T01:32:02;74931.28;;;-143.60;82.58
68329;BME280;55182;56.864;60.554;2022-10-31T01:34:27;74929.28;;;-143.60;82.68
68329;BME280;55182;56.864;60.554;2022-10-31T01:36:53;74927.28;;;-143.60;82.76
68329;BME280;55182;56.864;60.554;2022-10-31T01:39:21;74917.22;;;-143.60;82.80
68329;BME280;55182;56.864;60.554;2022-10-31T01:41:48;74927.28;;;-143.60;82.68
68329;BME280;55182;56.864;60.554;2022-10-31T01:46:47;74921.25;;;-143.60;82.53
68329;BME280;55182;56.864;60.554;2022-10-31T01:51:58;74921.25;;;-143.60;82.92
68329;BME280;55182;56.864;60.554;2022-10-31T01:54:33;74913.22;;;-143.60;82.74
68329;BME280;55182;56.864;60.554;2022-10-31T01:57:00;74909.19;;;-143.60;82.81
68329;BME280;55182;56.864;60.554;2022-10-31T01:59:27;74913.22;;;-143.60;82.88
68329;BME280;55182;56.864;60.554;2022-10-31T02:01:54;74915.22;;;-143.60;82.63
68329;BME280;55182;56.864;60.554;2022-10-31T02:04:20;74913.22;;;-143.60;82.86
68329;BME280;55182;56.864;60.554;2022-10-31T02:06:49;74907.19;;;-143.60;82.93
68329;BME280;55182;56.864;60.554;2022-10-31T02:09:17;74909.19;;;-143.60;82.78
68329;BME280;55182;56.864;60.554;2022-10-31T02:11:44;74903.16;;;-143.60;82.75
68329;BME280;55182;56.864;60.554;2022-10-31T02:14:10;74903.16;;;-143.60;82.89
68329;BME280;55182;56.864;60.554;2022-10-31T02:16:35;74899.16;;;-143.60;82.74
68329;BME280;55182;56.864;60.554;2022-10-31T02:21:52;74893.13;;;-143.60;82.68
68329;BME280;55182;56.864;60.554;2022-10-31T02:27:11;74905.19;;;-143.60;82.86
68329;BME280;55182;56.864;60.554;2022-10-31T02:29:52;74893.13;;;-143.60;82.63
68329;BME280;55182;56.864;60.554;2022-10-31T02:32:58;74897.16;;;-143.60;82.53
68329;BME280;55182;56.864;60.554;2022-10-31T02:38:13;74893.13;;;-143.60;82.78
68329;BME280;55182;56.864;60.554;2022-10-31T02:41:04;74899.16;;;-143.60;82.92
68329;BME280;55182;56.864;60.554;2022-10-31T02:48:42;74899.16;;;-143.60;82.75
68329;BME280;55182;56.864;60.554;2022-10-31T02:51:09;74899.16;;;-143.60;83.14
68329;BME280;55182;56.864;60.554;2022-10-31T02:53:36;74897.16;;;-143.60;83.01
68329;BME280;55182;56.864;60.554;2022-10-31T02:56:06;74899.16;;;-143.60;83.14
68329;BME280;55182;56.864;60.554;2022-10-31T02:58:35;74899.16;;;-143.60;83.32
68329;BME280;55182;56.864;60.554;2022-10-31T03:03:53;74897.16;;;-143.60;83.44
68329;BME280;55182;56.864;60.554;2022-10-31T03:06:25;74897.16;;;-143.60;83.41
68329;BME280;55182;56.864;60.554;2022-10-31T03:12:01;74893.13;;;-143.60;83.56
68329;BME280;55182;56.864;60.554;2022-10-31T03:14:31;74893.13;;;-143.60;83.68
68329;BME280;55182;56.864;60.554;2022-10-31T03:17:03;74889.09;;;-143.60;83.64
68329;BME280;55182;56.864;60.554;2022-10-31T03:19:32;74885.09;;;-143.60;83.87
68329;BME280;55182;56.864;60.554;2022-10-31T03:22:19;74891.13;;;-143.60;84.13
68329;BME280;55182;56.864;60.554;2022-10-31T03:24:46;74885.09;;;-143.60;84.14
68329;BME280;55182;56.864;60.554;2022-10-31T03:27:13;74879.06;;;-143.60;83.98
68329;BME280;55182;56.864;60.554;2022-10-31T03:29:40;74891.13;;;-143.60;84.33
68329;BME280;55182;56.864;60.554;2022-10-31T03:34:33;74877.06;;;-143.60;84.16
68329;BME280;55182;56.864;60.554;2022-10-31T03:37:01;74875.03;;;-143.60;84.09
68329;BME280;55182;56.864;60.554;2022-10-31T03:39:28;74865.00;;;-143.60;83.95
68329;BME280;55182;56.864;60.554;2022-10-31T03:44:39;74869.03;;;-143.60;83.94
68329;BME280;55182;56.864;60.554;2022-10-31T03:47:07;74854.97;;;-143.60;84.13
68329;BME280;55182;56.864;60.554;2022-10-31T03:49:33;74867.00;;;-143.60;83.85
68329;BME280;55182;56.864;60.554;2022-10-31T04:00:06;74854.97;;;-143.60;83.79
68329;BME280;55182;56.864;60.554;2022-10-31T04:03:03;74856.97;;;-143.60;83.78
68329;BME280;55182;56.864;60.554;2022-10-31T04:05:32;74865.00;;;-143.60;83.91
68329;BME280;55182;56.864;60.554;2022-10-31T04:08:00;74852.94;;;-143.60;84.00
68329;BME280;55182;56.864;60.554;2022-10-31T04:10:30;74854.97;;;-143.60;84.11
68329;BME280;55182;56.864;60.554;2022-10-31T04:12:58;74852.94;;;-143.60;84.16
68329;BME280;55182;56.864;60.554;2022-10-31T04:18:17;74848.94;;;-143.60;84.79
68329;BME280;55182;56.864;60.554;2022-10-31T04:20:42;74842.91;;;-143.60;84.83
68329;BME280;55182;56.864;60.554;2022-10-31T04:23:15;74852.94;;;-143.60;84.79
68329;BME280;55182;56.864;60.554;2022-10-31T04:25:43;74840.91;;;-143.60;84.95
68329;BME280;55182;56.864;60.554;2022-10-31T04:28:08;74830.84;;;-143.60;85.03
68329;BME280;55182;56.864;60.554;2022-10-31T04:30:33;74828.84;;;-143.60;85.21
68329;BME280;55182;56.864;60.554;2022-10-31T04:32:59;74832.88;;;-143.60;85.21
68329;BME280;55182;56.864;60.554;2022-10-31T04:35:25;74820.81;;;-143.60;85.33
68329;BME280;55182;56.864;60.554;2022-10-31T04:37:51;74808.75;;;-143.60;85.34
68329;BME280;55182;56.864;60.554;2022-10-31T04:40:18;74816.78;;;-143.60;85.24
68329;BME280;55182;56.864;60.554;2022-10-31T04:42:58;74808.75;;;-143.60;85.35
68329;BME280;55182;56.864;60.554;2022-10-31T04:45:24;74814.78;;;-143.60;85.33
68329;BME280;55182;56.864;60.554;2022-10-31T04:47:51;74804.75;;;-143.60;85.35
68329;BME280;55182;56.864;60.554;2022-10-31T04:50:17;74800.72;;;-143.60;85.27
68329;BME280;55182;56.864;60.554;2022-10-31T04:52:44;74800.72;;;-143.60;85.21
68329;BME280;55182;56.864;60.554;2022-10-31T04:55:12;74786.66;;;-143.60;85.36
68329;BME280;55182;56.864;60.554;2022-10-31T04:57:57;74784.66;;;-143.60;84.90
68329;BME280;55182;56.864;60.554;2022-10-31T05:00:24;74782.63;;;-143.60;85.02
68329;BME280;55182;56.864;60.554;2022-10-31T05:02:51;74766.56;;;-143.60;84.98
68329;BME280;55182;56.864;60.554;2022-10-31T05:05:18;74762.56;;;-143.60;84.90
68329;BME280;55182;56.864;60.554;2022-10-31T05:07:44;74754.50;;;-143.60;84.83
68329;BME280;55182;56.864;60.554;2022-10-31T05:10:11;74750.50;;;-143.60;84.71
68329;BME280;55182;56.864;60.554;2022-10-31T05:12:38;74750.50;;;-143.60;84.62
68329;BME280;55182;56.864;60.554;2022-10-31T05:15:06;74750.50;;;-143.60;84.40
68329;BME280;55182;56.864;60.554;2022-10-31T05:18:01;74740.47;;;-143.60;84.13
68329;BME280;55182;56.864;60.554;2022-10-31T05:21:02;74734.44;;;-143.60;83.85
68329;BME280;55182;56.864;60.554;2022-10-31T05:23:34;74724.38;;;-143.60;83.50
68329;BME280;55182;56.864;60.554;2022-10-31T05:25:59;74716.34;;;-143.60;83.35
68329;BME280;55182;56.864;60.554;2022-10-31T05:28:24;74712.34;;;-143.60;83.35
68329;BME280;55182;56.864;60.554;2022-10-31T05:30:50;74696.25;;;-143.60;83.07
68329;BME280;55182;56.864;60.554;2022-10-31T05:33:16;74700.28;;;-143.60;82.83
68329;BME280;55182;56.864;60.554;2022-10-31T05:36:00;74686.22;;;-143.60;82.82
68329;BME280;55182;56.864;60.554;2022-10-31T05:38:28;74682.19;;;-143.60;82.55
68329;BME280;55182;56.864;60.554;2022-10-31T05:40:59;74668.13;;;-143.60;82.55
68329;BME280;55182;56.864;60.554;2022-10-31T05:43:24;74666.13;;;-143.60;82.35
68329;BME280;55182;56.864;60.554;2022-10-31T05:45:54;74660.09;;;-143.60;82.29
68329;BME280;55182;56.864;60.554;2022-10-31T05:48:39;74652.06;;;-143.60;82.14
68329;BME280;55182;56.864;60.554;2022-10-31T05:51:34;74642.03;;;-143.60;82.19
68329;BME280;55182;56.864;60.554;2022-10-31T05:53:59;74640.03;;;-143.60;81.96
68329;BME280;55182;56.864;60.554;2022-10-31T05:56:25;74638.00;;;-143.60;81.80
68329;BME280;55182;56.864;60.554;2022-10-31T05:58:51;74631.97;;;-143.60;81.77
68329;BME280;55182;56.864;60.554;2022-10-31T06:01:16;74627.97;;;-143.60;81.59
68329;BME280;55182;56.864;60.554;2022-10-31T06:03:44;74623.94;;;-143.60;81.67
68329;BME280;55182;56.864;60.554;2022-10-31T06:06:14;74623.94;;;-143.60;81.46
68329;BME280;55182;56.864;60.554;2022-10-31T06:08:40;74611.91;;;-143.60;81.26
68329;BME280;55182;56.864;60.554;2022-10-31T06:14:02;74603.84;;;-143.60;80.87
68329;BME280;55182;56.864;60.554;2022-10-31T06:16:42;74595.81;;;-143.60;80.81
68329;BME280;55182;56.864;60.554;2022-10-31T06:19:34;74587.78;;;-143.60;80.73
68329;BME280;55182;56.864;60.554;2022-10-31T06:22:00;74583.78;;;-143.60;80.66
68329;BME280;55182;56.864;60.554;2022-10-31T06:24:26;74585.78;;;-143.60;80.59
68329;BME280;55182;56.864;60.554;2022-10-31T06:26:51;74575.75;;;-143.60;80.59
68329;BME280;55182;56.864;60.554;2022-10-31T06:29:17;74573.72;;;-143.60;80.42
68329;BME280;55182;56.864;60.554;2022-10-31T06:32:04;74563.69;;;-143.60;80.03
68329;BME280;55182;56.864;60.554;2022-10-31T06:34:33;74559.66;;;-143.60;79.93
68329;BME280;55182;56.864;60.554;2022-10-31T06:36:58;74559.66;;;-143.60;79.67
68329;BME280;55182;56.864;60.554;2022-10-31T06:39:24;74553.66;;;-143.60;79.29
68329;BME280;55182;56.864;60.554;2022-10-31T06:41:51;74549.63;;;-143.60;79.32
68329;BME280;55182;56.864;60.554;2022-10-31T06:44:19;74543.59;;;-143.60;79.39
68329;BME280;55182;56.864;60.554;2022-10-31T06:46:54;74553.66;;;-143.60;79.66
68329;BME280;55182;56.864;60.554;2022-10-31T06:49:40;74553.66;;;-143.60;79.68
68329;BME280;55182;56.864;60.554;2022-10-31T06:52:11;74553.66;;;-143.60;79.89
68329;BME280;55182;56.864;60.554;2022-10-31T06:54:37;74559.66;;;-143.60;80.38
68329;BME280;55182;56.864;60.554;2022-10-31T06:57:03;74559.66;;;-143.60;80.23
68329;BME280;55182;56.864;60.554;2022-10-31T06:59:28;74557.66;;;-143.60;80.54
68329;BME280;55182;56.864;60.554;2022-10-31T07:02:26;74555.66;;;-143.60;80.67
68329;BME280;55182;56.864;60.554;2022-10-31T07:04:51;74555.66;;;-143.60;80.74
68329;BME280;55182;56.864;60.554;2022-10-31T07:07:17;74543.59;;;-143.60;80.77
68329;BME280;55182;56.864;60.554;2022-10-31T07:09:44;74541.59;;;-143.60;80.53
68329;BME280;55182;56.864;60.554;2022-10-31T07:12:12;74547.63;;;-143.60;80.63
68329;BME280;55182;56.864;60.554;2022-10-31T07:14:44;74553.66;;;-143.60;80.71
68329;BME280;55182;56.864;60.554;2022-10-31T07:17:09;74557.66;;;-143.60;81.06
68329;BME280;55182;56.864;60.554;2022-10-31T07:19:39;74557.66;;;-143.60;81.53
68329;BME280;55182;56.864;60.554;2022-10-31T07:22:04;74563.69;;;-143.60;81.78
68329;BME280;55182;56.864;60.554;2022-10-31T07:24:31;74575.75;;;-143.60;82.02
68329;BME280;55182;56.864;60.554;2022-10-31T07:27:35;74571.72;;;-143.60;81.98
68329;BME280;55182;56.864;60.554;2022-10-31T07:30:02;74575.75;;;-143.60;82.02
68329;BME280;55182;56.864;60.554;2022-10-31T07:32:36;74571.72;;;-143.60;82.29
68329;BME280;55182;56.864;60.554;2022-10-31T07:35:02;74571.72;;;-143.60;82.12
68329;BME280;55182;56.864;60.554;2022-10-31T07:37:38;74563.69;;;-143.60;82.10
68329;BME280;55182;56.864;60.554;2022-10-31T07:40:04;74559.66;;;-143.60;81.90
68329;BME280;55182;56.864;60.554;2022-10-31T07:42:34;74541.59;;;-143.60;81.42
68329;BME280;55182;56.864;60.554;2022-10-31T07:45:00;74551.63;;;-143.60;81.65
68329;BME280;55182;56.864;60.554;2022-10-31T07:47:45;74537.56;;;-143.60;81.22
68329;BME280;55182;56.864;60.554;2022-10-31T07:50:29;74535.56;;;-143.60;81.01
68329;BME280;55182;56.864;60.554;2022-10-31T07:53:14;74541.59;;;-143.60;81.03
68329;BME280;55182;56.864;60.554;2022-10-31T07:55:48;74533.56;;;-143.60;80.55
68329;BME280;55182;56.864;60.554;2022-10-31T07:58:14;74527.53;;;-143.60;80.68
68329;BME280;55182;56.864;60.554;2022-10-31T08:00:41;74539.59;;;-143.60;80.82
68329;BME280;55182;56.864;60.554;2022-10-31T08:03:08;74541.59;;;-143.60;80.73
68329;BME280;55182;56.864;60.554;2022-10-31T08:05:57;74543.59;;;-143.60;81.15
68329;BME280;55182;56.864;60.554;2022-10-31T08:08:48;74539.59;;;-143.60;80.93
68329;BME280;55182;56.864;60.554;2022-10-31T08:11:14;74539.59;;;-143.60;81.03
68329;BME280;55182;56.864;60.554;2022-10-31T08:13:39;74537.56;;;-143.60;81.11
68329;BME280;55182;56.864;60.554;2022-10-31T08:16:05;74527.53;;;-143.60;80.89
68329;BME280;55182;56.864;60.554;2022-10-31T08:18:34;74529.53;;;-143.60;81.10
68329;BME280;55182;56.864;60.554;2022-10-31T08:20:59;74507.44;;;-143.60;80.71
68329;BME280;55182;56.864;60.554;2022-10-31T08:23:25;74513.47;;;-143.60;80.77
68329;BME280;55182;56.864;60.554;2022-10-31T08:25:52;74503.44;;;-143.60;80.59
68329;BME280;55182;56.864;60.554;2022-10-31T08:28:18;74505.44;;;-143.60;80.52
68329;BME280;55182;56.864;60.554;2022-10-31T08:30:45;74493.38;;;-143.60;80.57
68329;BME280;55182;56.864;60.554;2022-10-31T08:33:31;74493.38;;;-143.60;80.58
68329;BME280;55182;56.864;60.554;2022-10-31T08:36:17;74483.34;;;-143.60;80.22
68329;BME280;55182;56.864;60.554;2022-10-31T08:38:51;74475.31;;;-143.60;79.89
68329;BME280;55182;56.864;60.554;2022-10-31T08:41:17;74459.25;;;-143.60;79.98
68329;BME280;55182;56.864;60.554;2022-10-31T08:43:42;74469.28;;;-143.60;79.84
68329;BME280;55182;56.864;60.554;2022-10-31T08:46:08;74463.25;;;-143.60;79.87
68329;BME280;55182;56.864;60.554;2022-10-31T08:48:33;74463.25;;;-143.60;79.52
68329;BME280;55182;56.864;60.554;2022-10-31T08:51:00;74459.25;;;-143.60;79.70
68329;BME280;55182;56.864;60.554;2022-10-31T08:53:27;74467.28;;;-143.60;79.73
68329;BME280;55182;56.864;60.554;2022-10-31T08:56:08;74459.25;;;-143.60;79.65
68329;BME280;55182;56.864;60.554;2022-10-31T08:58:34;74459.25;;;-143.60;79.73
68329;BME280;55182;56.864;60.554;2022-10-31T09:01:01;74447.19;;;-143.60;79.72
68329;BME280;55182;56.864;60.554;2022-10-31T09:03:28;74439.16;;;-143.60;79.44
68329;BME280;55182;56.864;60.554;2022-10-31T09:05:57;74425.09;;;-143.60;79.15
68329;BME280;55182;56.864;60.554;2022-10-31T09:08:23;74423.09;;;-143.60;79.09
68329;BME280;55182;56.864;60.554;2022-10-31T09:10:50;74427.09;;;-143.60;79.08
68329;BME280;55182;56.864;60.554;2022-10-31T09:13:22;74437.13;;;-143.60;79.44
68329;BME280;55182;56.864;60.554;2022-10-31T09:16:17;74439.16;;;-143.60;79.71
68329;BME280;55182;56.864;60.554;2022-10-31T09:18:42;74443.16;;;-143.60;79.85
68329;BME280;55182;56.864;60.554;2022-10-31T09:21:08;74451.19;;;-143.60;79.95
68329;BME280;55182;56.864;60.554;2022-10-31T09:23:33;74451.19;;;-143.60;80.04
68329;BME280;55182;56.864;60.554;2022-10-31T09:26:00;74453.22;;;-143.60;80.42
68329;BME280;55182;56.864;60.554;2022-10-31T09:28:34;74453.22;;;-143.60;80.44
68329;BME280;55182;56.864;60.554;2022-10-31T09:31:05;74455.22;;;-143.60;80.33
68329;BME280;55182;56.864;60.554;2022-10-31T09:33:52;74447.19;;;-143.60;80.59
68329;BME280;55182;56.864;60.554;2022-10-31T09:36:37;74447.19;;;-143.60;80.72
68329;BME280;55182;56.864;60.554;2022-10-31T09:39:05;74441.16;;;-143.60;80.44
68329;BME280;55182;56.864;60.554;2022-10-31T09:41:38;74441.16;;;-143.60;80.59
68329;BME280;55182;56.864;60.554;2022-10-31T09:44:15;74439.16;;;-143.60;80.56
68329;BME280;55182;56.864;60.554;2022-10-31T09:51:53;74437.13;;;-143.60;80.56
68329;BME280;55182;56.864;60.554;2022-10-31T09:56:52;74439.16;;;-143.60;80.68
68329;BME280;55182;56.864;60.554;2022-10-31T09:59:40;74435.13;;;-143.60;80.52
68329;BME280;55182;56.864;60.554;2022-10-31T10:02:05;74435.13;;;-143.60;80.65
68329;BME280;55182;56.864;60.554;2022-10-31T10:07:32;74437.13;;;-143.60;80.95
68329;BME280;55182;56.864;60.554;2022-10-31T10:17:58;74451.19;;;-143.60;81.13
68329;BME280;55182;56.864;60.554;2022-10-31T10:23:27;74451.19;;;-143.60;81.62
68329;BME280;55182;56.864;60.554;2022-10-31T10:28:38;74445.19;;;-143.60;81.66
68329;BME280;55182;56.864;60.554;2022-10-31T10:31:07;74447.19;;;-143.60;81.54
68329;BME280;55182;56.864;60.554;2022-10-31T10:33:37;74449.19;;;-143.60;81.57
68329;BME280;55182;56.864;60.554;2022-10-31T10:36:05;74447.19;;;-143.60;81.40
68329;BME280;55182;56.864;60.554;2022-10-31T10:38:34;74451.19;;;-143.60;81.54
68329;BME280;55182;56.864;60.554;2022-10-31T10:41:01;74449.19;;;-143.60;81.72
68329;BME280;55182;56.864;60.554;2022-10-31T10:43:32;74443.16;;;-143.60;81.65
68329;BME280;55182;56.864;60.554;2022-10-31T10:51:10;74441.16;;;-143.60;81.95
68329;BME280;55182;56.864;60.554;2022-10-31T10:56:16;74439.16;;;-143.60;82.01
68329;BME280;55182;56.864;60.554;2022-10-31T10:58:43;74447.19;;;-143.60;82.03
68329;BME280;55182;56.864;60.554;2022-10-31T11:01:09;74451.19;;;-143.60;82.22
68329;BME280;55182;56.864;60.554;2022-10-31T11:03:36;74455.22;;;-143.60;82.11
68329;BME280;55182;56.864;60.554;2022-10-31T11:06:01;74457.22;;;-143.60;82.09
68329;BME280;55182;56.864;60.554;2022-10-31T11:08:30;74455.22;;;-143.60;82.24
68329;BME280;55182;56.864;60.554;2022-10-31T11:11:01;74447.19;;;-143.60;82.54
68329;BME280;55182;56.864;60.554;2022-10-31T11:13:27;74451.19;;;-143.60;82.55
68329;BME280;55182;56.864;60.554;2022-10-31T11:16:00;74455.22;;;-143.60;82.41
68329;BME280;55182;56.864;60.554;2022-10-31T11:18:27;74455.22;;;-143.60;82.71
68329;BME280;55182;56.864;60.554;2022-10-31T11:20:56;74459.25;;;-143.60;82.72
68329;BME280;55182;56.864;60.554;2022-10-31T11:23:23;74459.25;;;-143.60;82.67
68329;BME280;55182;56.864;60.554;2022-10-31T11:25:59;74455.22;;;-143.60;82.84
68329;BME280;55182;56.864;60.554;2022-10-31T11:28:25;74461.25;;;-143.60;82.75
68329;BME280;55182;56.864;60.554;2022-10-31T11:30:58;74461.25;;;-143.60;82.74
68329;BME280;55182;56.864;60.554;2022-10-31T11:33:26;74463.25;;;-143.60;82.93
68329;BME280;55182;56.864;60.554;2022-10-31T11:35:53;74463.25;;;-143.60;83.04
68329;BME280;55182;56.864;60.554;2022-10-31T11:38:20;74469.28;;;-143.60;83.22
68329;BME280;55182;56.864;60.554;2022-10-31T11:43:30;74463.25;;;-143.60;83.32
68329;BME280;55182;56.864;60.554;2022-10-31T11:45:55;74459.25;;;-143.60;83.10
68329;BME280;55182;56.864;60.554;2022-10-31T11:48:22;74465.25;;;-143.60;83.48
68329;BME280;55182;56.864;60.554;2022-10-31T11:50:57;74465.25;;;-143.60;83.55
68329;BME280;55182;56.864;60.554;2022-10-31T11:53:27;74469.28;;;-143.60;83.63
68329;BME280;55182;56.864;60.554;2022-10-31T11:56:10;74471.28;;;-143.60;83.30
68329;BME280;55182;56.864;60.554;2022-10-31T11:58:37;74471.28;;;-143.60;83.40
68329;BME280;55182;56.864;60.554;2022-10-31T12:01:02;74459.25;;;-143.60;83.47
68329;BME280;55182;56.864;60.554;2022-10-31T12:03:51;74467.28;;;-143.60;83.51
68329;BME280;55182;56.864;60.554;2022-10-31T12:06:16;74457.22;;;-143.60;83.94
68329;BME280;55182;56.864;60.554;2022-10-31T12:08:43;74455.22;;;-143.60;84.13
68329;BME280;55182;56.864;60.554;2022-10-31T12:11:21;74463.25;;;-143.60;84.68
68329;BME280;55182;56.864;60.554;2022-10-31T12:16:29;74465.25;;;-143.60;85.11
68329;BME280;55182;56.864;60.554;2022-10-31T12:19:22;74471.28;;;-143.60;85.11
68329;BME280;55182;56.864;60.554;2022-10-31T12:21:58;74457.22;;;-143.60;84.97
68329;BME280;55182;56.864;60.554;2022-10-31T12:26:56;74463.25;;;-143.60;85.08
68329;BME280;55182;56.864;60.554;2022-10-31T12:34:43;74473.28;;;-143.60;85.47
68329;BME280;55182;56.864;60.554;2022-10-31T12:44:58;74475.31;;;-143.60;85.26
68329;BME280;55182;56.864;60.554;2022-10-31T12:47:40;74467.28;;;-143.60;85.38
68329;BME280;55182;56.864;60.554;2022-10-31T12:57:52;74477.31;;;-143.60;85.26
68329;BME280;55182;56.864;60.554;2022-10-31T13:00:19;74479.31;;;-143.60;84.88
68329;BME280;55182;56.864;60.554;2022-10-31T13:02:58;74479.31;;;-143.60;84.90
68329;BME280;55182;56.864;60.554;2022-10-31T13:05:30;74475.31;;;-143.60;84.93
68329;BME280;55182;56.864;60.554;2022-10-31T13:08:56;74473.28;;;-143.60;84.82
68329;BME280;55182;56.864;60.554;2022-10-31T13:13:40;74467.28;;;-143.60;84.90
68329;BME280;55182;56.864;60.554;2022-10-31T13:16:11;74467.28;;;-143.60;84.73
68329;BME280;55182;56.864;60.554;2022-10-31T13:18:39;74473.28;;;-143.60;84.75
68329;BME280;55182;56.864;60.554;2022-10-31T13:21:10;74467.28;;;-143.60;84.57
68329;BME280;55182;56.864;60.554;2022-10-31T13:23:38;74471.28;;;-143.60;84.70
68329;BME280;55182;56.864;60.554;2022-10-31T13:26:14;74467.28;;;-143.60;84.76
68329;BME280;55182;56.864;60.554;2022-10-31T13:28:46;74471.28;;;-143.60;84.77
68329;BME280;55182;56.864;60.554;2022-10-31T13:31:13;74471.28;;;-143.60;84.67
68329;BME280;55182;56.864;60.554;2022-10-31T13:33:40;74463.25;;;-143.60;84.70
68329;BME280;55182;56.864;60.554;2022-10-31T13:36:11;74467.28;;;-143.60;84.60
68329;BME280;55182;56.864;60.554;2022-10-31T13:38:53;74463.25;;;-143.60;84.66
68329;BME280;55182;56.864;60.554;2022-10-31T13:46:34;74455.22;;;-143.60;84.57
68329;BME280;55182;56.864;60.554;2022-10-31T13:48:59;74447.19;;;-143.60;84.55
68329;BME280;55182;56.864;60.554;2022-10-31T13:51:32;74455.22;;;-143.60;84.72
68329;BME280;55182;56.864;60.554;2022-10-31T13:54:01;74461.25;;;-143.60;84.49
68329;BME280;55182;56.864;60.554;2022-10-31T13:56:32;74461.25;;;-143.60;84.83
68329;BME280;55182;56.864;60.554;2022-10-31T14:01:29;74467.28;;;-143.60;85.04
68329;BME280;55182;56.864;60.554;2022-10-31T14:03:58;74477.31;;;-143.60;84.77
68329;BME280;55182;56.864;60.554;2022-10-31T14:06:34;74471.28;;;-143.60;84.88
68329;BME280;55182;56.864;60.554;2022-10-31T14:08:59;74475.31;;;-143.60;84.80
68329;BME280;55182;56.864;60.554;2022-10-31T14:11:26;74485.34;;;-143.60;84.88
68329;BME280;55182;56.864;60.554;2022-10-31T14:13:52;74487.34;;;-143.60;84.70
68329;BME280;55182;56.864;60.554;2022-10-31T14:16:28;74491.38;;;-143.60;85.06
68329;BME280;55182;56.864;60.554;2022-10-31T14:19:28;74493.38;;;-143.60;84.77
68329;BME280;55182;56.864;60.554;2022-10-31T14:21:47;74491.38;;;-143.60;84.83
68329;BME280;55182;56.864;60.554;2022-10-31T14:24:13;74491.38;;;-143.60;84.88
68329;BME280;55182;56.864;60.554;2022-10-31T14:26:39;74497.41;;;-143.60;84.97
68329;BME280;55182;56.864;60.554;2022-10-31T14:31:43;74497.41;;;-143.60;85.09
68329;BME280;55182;56.864;60.554;2022-10-31T14:34:22;74489.38;;;-143.60;85.00
68329;BME280;55182;56.864;60.554;2022-10-31T14:39:18;74473.28;;;-143.60;85.25
68329;BME280;55182;56.864;60.554;2022-10-31T14:49:49;74467.28;;;-143.60;84.78
68329;BME280;55182;56.864;60.554;2022-10-31T14:52:16;74471.28;;;-143.60;84.80
68329;BME280;55182;56.864;60.554;2022-10-31T14:54:44;74467.28;;;-143.60;84.93
68329;BME280;55182;56.864;60.554;2022-10-31T14:57:15;74475.31;;;-143.60;84.90